sensor_id;sensor_type;location;lat;lon;timestamp;P1;durP1;ratioP1;P2;durP2;ratioP2
7587;SDS011;3835;48.850;8.938;2022-09-01T00:01:04;20.37;;;18.87;;
7587;SDS011;3835;48.850;8.938;2022-09-01T00:03:32;19.93;;;18.33;;
7587;SDS011;3835;48.850;8.938;2022-09-01T00:06:00;20.57;;;18.80;;
7587;SDS011;3835;48.850;8.938;2022-09-01T00:08:29;21.37;;;19.87;;
7587;SDS011;3835;48.850;8.938;2022-09-01T00:10:56;20.70;;;19.07;;
7587;SDS011;3835;48.850;8.938;2022-09-01T00:13:23;19.23;;;17.70;;
7587;SDS011;3835;48.850;8.938;2022-09-01T00:15:50;18.10;;;16.60;;
7587;SDS011;3835;48.850;8.938;2022-09-01T00:18:17;19.17;;;17.67;;
7587;SDS011;3835;48.850;8.938;2022-09-01T00:20:44;19.30;;;17.80;;
7587;SDS011;3835;48.850;8.938;2022-09-01T00:23:10;20.67;;;19.27;;
7587;SDS011;3835;48.850;8.938;2022-09-01T00:25:39;18.57;;;17.17;;
7587;SDS011;3835;48.850;8.938;2022-09-01T00:28:06;18.73;;;17.37;;
7587;SDS011;3835;48.850;8.938;2022-09-01T00:30:33;19.73;;;18.13;;
7587;SDS011;3835;48.850;8.938;2022-09-01T00:33:00;19.37;;;17.77;;
7587;SDS011;3835;48.850;8.938;2022-09-01T00:35:27;18.80;;;17.17;;
7587;SDS011;3835;48.850;8.938;2022-09-01T00:37:54;18.93;;;17.53;;
7587;SDS011;3835;48.850;8.938;2022-09-01T00:40:21;20.63;;;19.17;;
7587;SDS011;3835;48.850;8.938;2022-09-01T00:42:49;21.00;;;19.23;;
7587;SDS011;3835;48.850;8.938;2022-09-01T00:45:18;18.67;;;17.27;;
7587;SDS011;3835;48.850;8.938;2022-09-01T00:47:45;19.77;;;18.07;;
7587;SDS011;3835;48.850;8.938;2022-09-01T00:50:13;21.77;;;20.07;;
7587;SDS011;3835;48.850;8.938;2022-09-01T00:52:43;20.23;;;18.67;;
7587;SDS011;3835;48.850;8.938;2022-09-01T00:55:21;21.33;;;19.63;;
7587;SDS011;3835;48.850;8.938;2022-09-01T00:57:51;17.87;;;16.57;;
7587;SDS011;3835;48.850;8.938;2022-09-01T01:00:20;19.53;;;18.07;;
7587;SDS011;3835;48.850;8.938;2022-09-01T01:02:50;17.83;;;16.43;;
7587;SDS011;3835;48.850;8.938;2022-09-01T01:05:20;18.33;;;17.03;;
7587;SDS011;3835;48.850;8.938;2022-09-01T01:07:47;22.07;;;20.17;;
7587;SDS011;3835;48.850;8.938;2022-09-01T01:10:16;20.67;;;18.77;;
7587;SDS011;3835;48.850;8.938;2022-09-01T01:12:47;19.70;;;17.90;;
7587;SDS011;3835;48.850;8.938;2022-09-01T01:15:17;21.33;;;19.47;;
7587;SDS011;3835;48.850;8.938;2022-09-01T01:17:45;23.30;;;21.10;;
7587;SDS011;3835;48.850;8.938;2022-09-01T01:20:13;22.53;;;20.33;;
7587;SDS011;3835;48.850;8.938;2022-09-01T01:23:02;26.20;;;23.50;;
7587;SDS011;3835;48.850;8.938;2022-09-01T01:25:38;24.47;;;21.87;;
7587;SDS011;3835;48.850;8.938;2022-09-01T01:28:10;25.07;;;22.57;;
7587;SDS011;3835;48.850;8.938;2022-09-01T01:30:40;28.60;;;23.63;;
7587;SDS011;3835;48.850;8.938;2022-09-01T01:33:15;25.93;;;22.57;;
7587;SDS011;3835;48.850;8.938;2022-09-01T01:35:43;33.70;;;25.90;;
7587;SDS011;3835;48.850;8.938;2022-09-01T01:38:11;31.03;;;24.53;;
7587;SDS011;3835;48.850;8.938;2022-09-01T01:40:41;30.80;;;27.50;;
7587;SDS011;3835;48.850;8.938;2022-09-01T01:43:08;31.43;;;26.63;;
7587;SDS011;3835;48.850;8.938;2022-09-01T01:45:36;23.33;;;21.07;;
7587;SDS011;3835;48.850;8.938;2022-09-01T01:48:03;22.37;;;20.37;;
7587;SDS011;3835;48.850;8.938;2022-09-01T01:50:35;22.00;;;20.03;;
7587;SDS011;3835;48.850;8.938;2022-09-01T01:53:03;25.63;;;23.03;;
7587;SDS011;3835;48.850;8.938;2022-09-01T01:55:31;27.10;;;22.80;;
7587;SDS011;3835;48.850;8.938;2022-09-01T01:58:00;28.50;;;22.77;;
7587;SDS011;3835;48.850;8.938;2022-09-01T02:00:29;25.77;;;23.07;;
7587;SDS011;3835;48.850;8.938;2022-09-01T02:02:58;29.23;;;24.50;;
7587;SDS011;3835;48.850;8.938;2022-09-01T02:05:27;27.17;;;23.70;;
7587;SDS011;3835;48.850;8.938;2022-09-01T02:07:56;25.30;;;22.73;;
7587;SDS011;3835;48.850;8.938;2022-09-01T02:10:30;28.17;;;21.60;;
7587;SDS011;3835;48.850;8.938;2022-09-01T02:13:00;27.27;;;24.20;;
7587;SDS011;3835;48.850;8.938;2022-09-01T02:15:32;30.57;;;23.97;;
7587;SDS011;3835;48.850;8.938;2022-09-01T02:18:08;29.87;;;26.47;;
7587;SDS011;3835;48.850;8.938;2022-09-01T02:20:35;34.97;;;27.43;;
7587;SDS011;3835;48.850;8.938;2022-09-01T02:23:02;35.73;;;30.47;;
7587;SDS011;3835;48.850;8.938;2022-09-01T02:25:34;38.10;;;26.47;;
7587;SDS011;3835;48.850;8.938;2022-09-01T02:28:04;32.30;;;25.57;;
7587;SDS011;3835;48.850;8.938;2022-09-01T02:30:33;28.00;;;25.00;;
7587;SDS011;3835;48.850;8.938;2022-09-01T02:33:01;30.13;;;25.07;;
7587;SDS011;3835;48.850;8.938;2022-09-01T02:35:29;33.60;;;26.13;;
7587;SDS011;3835;48.850;8.938;2022-09-01T02:37:58;34.90;;;28.13;;
7587;SDS011;3835;48.850;8.938;2022-09-01T02:40:25;30.37;;;26.00;;
7587;SDS011;3835;48.850;8.938;2022-09-01T02:42:54;29.43;;;26.33;;
7587;SDS011;3835;48.850;8.938;2022-09-01T02:45:24;29.23;;;26.20;;
7587;SDS011;3835;48.850;8.938;2022-09-01T02:47:51;27.93;;;25.20;;
7587;SDS011;3835;48.850;8.938;2022-09-01T02:50:18;32.10;;;24.90;;
7587;SDS011;3835;48.850;8.938;2022-09-01T02:52:47;26.03;;;23.30;;
7587;SDS011;3835;48.850;8.938;2022-09-01T02:55:16;28.70;;;24.03;;
7587;SDS011;3835;48.850;8.938;2022-09-01T02:57:46;28.03;;;24.63;;
7587;SDS011;3835;48.850;8.938;2022-09-01T03:00:14;27.23;;;24.60;;
7587;SDS011;3835;48.850;8.938;2022-09-01T03:02:51;29.30;;;25.07;;
7587;SDS011;3835;48.850;8.938;2022-09-01T03:05:19;27.03;;;24.20;;
7587;SDS011;3835;48.850;8.938;2022-09-01T03:07:50;28.63;;;24.13;;
7587;SDS011;3835;48.850;8.938;2022-09-01T03:10:21;28.93;;;25.07;;
7587;SDS011;3835;48.850;8.938;2022-09-01T03:12:51;30.50;;;23.23;;
7587;SDS011;3835;48.850;8.938;2022-09-01T03:15:19;26.30;;;23.70;;
7587;SDS011;3835;48.850;8.938;2022-09-01T03:17:47;36.13;;;22.33;;
7587;SDS011;3835;48.850;8.938;2022-09-01T03:20:16;26.27;;;23.67;;
7587;SDS011;3835;48.850;8.938;2022-09-01T03:22:45;24.17;;;21.43;;
7587;SDS011;3835;48.850;8.938;2022-09-01T03:25:12;24.90;;;22.60;;
7587;SDS011;3835;48.850;8.938;2022-09-01T03:27:40;25.20;;;22.93;;
7587;SDS011;3835;48.850;8.938;2022-09-01T03:30:07;26.20;;;23.80;;
7587;SDS011;3835;48.850;8.938;2022-09-01T03:32:34;24.50;;;22.30;;
7587;SDS011;3835;48.850;8.938;2022-09-01T03:35:01;24.57;;;21.97;;
7587;SDS011;3835;48.850;8.938;2022-09-01T03:37:30;25.77;;;23.37;;
7587;SDS011;3835;48.850;8.938;2022-09-01T03:39:58;24.87;;;22.67;;
7587;SDS011;3835;48.850;8.938;2022-09-01T03:42:25;26.17;;;23.80;;
7587;SDS011;3835;48.850;8.938;2022-09-01T03:44:53;26.37;;;23.97;;
7587;SDS011;3835;48.850;8.938;2022-09-01T03:47:20;26.40;;;23.33;;
7587;SDS011;3835;48.850;8.938;2022-09-01T03:49:48;34.47;;;24.77;;
7587;SDS011;3835;48.850;8.938;2022-09-01T03:52:16;28.37;;;25.30;;
7587;SDS011;3835;48.850;8.938;2022-09-01T03:54:44;27.13;;;24.33;;
7587;SDS011;3835;48.850;8.938;2022-09-01T03:57:12;27.03;;;24.03;;
7587;SDS011;3835;48.850;8.938;2022-09-01T03:59:38;35.17;;;24.43;;
7587;SDS011;3835;48.850;8.938;2022-09-01T04:02:09;26.40;;;23.03;;
7587;SDS011;3835;48.850;8.938;2022-09-01T04:04:37;28.83;;;20.80;;
7587;SDS011;3835;48.850;8.938;2022-09-01T04:07:04;24.77;;;21.93;;
7587;SDS011;3835;48.850;8.938;2022-09-01T04:09:31;27.20;;;24.60;;
7587;SDS011;3835;48.850;8.938;2022-09-01T04:12:02;24.17;;;21.87;;
7587;SDS011;3835;48.850;8.938;2022-09-01T04:14:30;25.77;;;23.17;;
7587;SDS011;3835;48.850;8.938;2022-09-01T04:16:57;27.10;;;24.17;;
7587;SDS011;3835;48.850;8.938;2022-09-01T04:19:41;24.00;;;21.77;;
7587;SDS011;3835;48.850;8.938;2022-09-01T04:22:08;25.03;;;22.43;;
7587;SDS011;3835;48.850;8.938;2022-09-01T04:24:41;28.00;;;24.67;;
7587;SDS011;3835;48.850;8.938;2022-09-01T04:27:11;26.33;;;23.67;;
7587;SDS011;3835;48.850;8.938;2022-09-01T04:29:38;25.83;;;23.43;;
7587;SDS011;3835;48.850;8.938;2022-09-01T04:32:06;35.57;;;25.03;;
7587;SDS011;3835;48.850;8.938;2022-09-01T04:34:37;26.03;;;22.47;;
7587;SDS011;3835;48.850;8.938;2022-09-01T04:37:07;27.03;;;24.43;;
7587;SDS011;3835;48.850;8.938;2022-09-01T04:39:37;25.40;;;22.83;;
7587;SDS011;3835;48.850;8.938;2022-09-01T04:42:13;28.97;;;24.47;;
7587;SDS011;3835;48.850;8.938;2022-09-01T04:44:40;27.47;;;24.50;;
7587;SDS011;3835;48.850;8.938;2022-09-01T04:47:09;27.10;;;24.30;;
7587;SDS011;3835;48.850;8.938;2022-09-01T04:49:40;27.43;;;24.30;;
7587;SDS011;3835;48.850;8.938;2022-09-01T04:52:09;26.27;;;23.33;;
7587;SDS011;3835;48.850;8.938;2022-09-01T04:54:37;26.47;;;23.70;;
7587;SDS011;3835;48.850;8.938;2022-09-01T04:57:05;30.27;;;25.27;;
7587;SDS011;3835;48.850;8.938;2022-09-01T04:59:33;27.40;;;24.50;;
7587;SDS011;3835;48.850;8.938;2022-09-01T05:02:01;27.97;;;25.20;;
7587;SDS011;3835;48.850;8.938;2022-09-01T05:04:31;26.93;;;24.23;;
7587;SDS011;3835;48.850;8.938;2022-09-01T05:06:59;30.80;;;25.33;;
7587;SDS011;3835;48.850;8.938;2022-09-01T05:09:27;27.23;;;24.50;;
7587;SDS011;3835;48.850;8.938;2022-09-01T05:11:55;26.30;;;23.57;;
7587;SDS011;3835;48.850;8.938;2022-09-01T05:14:36;28.23;;;23.27;;
7587;SDS011;3835;48.850;8.938;2022-09-01T05:17:06;27.07;;;23.30;;
7587;SDS011;3835;48.850;8.938;2022-09-01T05:19:35;25.23;;;22.67;;
7587;SDS011;3835;48.850;8.938;2022-09-01T05:22:02;26.23;;;23.07;;
7587;SDS011;3835;48.850;8.938;2022-09-01T05:24:33;26.70;;;24.03;;
7587;SDS011;3835;48.850;8.938;2022-09-01T05:27:00;26.50;;;23.60;;
7587;SDS011;3835;48.850;8.938;2022-09-01T05:29:29;26.10;;;23.33;;
7587;SDS011;3835;48.850;8.938;2022-09-01T05:31:57;24.60;;;22.07;;
7587;SDS011;3835;48.850;8.938;2022-09-01T05:34:33;28.30;;;25.57;;
7587;SDS011;3835;48.850;8.938;2022-09-01T05:37:02;26.33;;;23.53;;
7587;SDS011;3835;48.850;8.938;2022-09-01T05:39:29;27.13;;;24.43;;
7587;SDS011;3835;48.850;8.938;2022-09-01T05:41:57;24.63;;;22.03;;
7587;SDS011;3835;48.850;8.938;2022-09-01T05:44:25;26.37;;;23.57;;
7587;SDS011;3835;48.850;8.938;2022-09-01T05:46:52;25.07;;;22.43;;
7587;SDS011;3835;48.850;8.938;2022-09-01T05:49:21;24.80;;;22.30;;
7587;SDS011;3835;48.850;8.938;2022-09-01T05:51:49;23.13;;;20.80;;
7587;SDS011;3835;48.850;8.938;2022-09-01T05:54:23;25.77;;;23.17;;
7587;SDS011;3835;48.850;8.938;2022-09-01T05:56:51;23.93;;;21.53;;
7587;SDS011;3835;48.850;8.938;2022-09-01T05:59:19;24.43;;;21.77;;
7587;SDS011;3835;48.850;8.938;2022-09-01T06:01:48;24.77;;;22.20;;
7587;SDS011;3835;48.850;8.938;2022-09-01T06:04:17;23.57;;;21.23;;
7587;SDS011;3835;48.850;8.938;2022-09-01T06:06:46;23.60;;;21.13;;
7587;SDS011;3835;48.850;8.938;2022-09-01T06:09:14;24.73;;;22.23;;
7587;SDS011;3835;48.850;8.938;2022-09-01T06:11:43;25.73;;;23.47;;
7587;SDS011;3835;48.850;8.938;2022-09-01T06:14:11;24.60;;;22.03;;
7587;SDS011;3835;48.850;8.938;2022-09-01T06:16:39;26.30;;;23.90;;
7587;SDS011;3835;48.850;8.938;2022-09-01T06:19:07;23.20;;;21.10;;
7587;SDS011;3835;48.850;8.938;2022-09-01T06:21:37;25.10;;;22.80;;
7587;SDS011;3835;48.850;8.938;2022-09-01T06:24:06;25.30;;;23.07;;
7587;SDS011;3835;48.850;8.938;2022-09-01T06:26:34;25.23;;;21.43;;
7587;SDS011;3835;48.850;8.938;2022-09-01T06:29:04;26.03;;;23.73;;
7587;SDS011;3835;48.850;8.938;2022-09-01T06:31:33;24.60;;;22.30;;
7587;SDS011;3835;48.850;8.938;2022-09-01T06:34:03;26.03;;;23.70;;
7587;SDS011;3835;48.850;8.938;2022-09-01T06:36:34;24.07;;;21.77;;
7587;SDS011;3835;48.850;8.938;2022-09-01T06:39:04;26.90;;;24.47;;
7587;SDS011;3835;48.850;8.938;2022-09-01T06:41:33;24.97;;;22.77;;
7587;SDS011;3835;48.850;8.938;2022-09-01T06:44:02;22.37;;;20.07;;
7587;SDS011;3835;48.850;8.938;2022-09-01T06:46:30;23.17;;;20.87;;
7587;SDS011;3835;48.850;8.938;2022-09-01T06:48:58;21.77;;;19.63;;
7587;SDS011;3835;48.850;8.938;2022-09-01T06:51:25;25.40;;;22.93;;
7587;SDS011;3835;48.850;8.938;2022-09-01T06:53:53;22.50;;;20.40;;
7587;SDS011;3835;48.850;8.938;2022-09-01T06:56:24;22.53;;;20.37;;
7587;SDS011;3835;48.850;8.938;2022-09-01T06:58:55;25.00;;;22.73;;
7587;SDS011;3835;48.850;8.938;2022-09-01T07:01:23;22.57;;;20.37;;
7587;SDS011;3835;48.850;8.938;2022-09-01T07:03:52;24.40;;;22.27;;
7587;SDS011;3835;48.850;8.938;2022-09-01T07:06:21;23.03;;;20.73;;
7587;SDS011;3835;48.850;8.938;2022-09-01T07:08:51;21.70;;;19.87;;
7587;SDS011;3835;48.850;8.938;2022-09-01T07:11:21;23.30;;;21.40;;
7587;SDS011;3835;48.850;8.938;2022-09-01T07:13:54;23.10;;;21.07;;
7587;SDS011;3835;48.850;8.938;2022-09-01T07:16:22;22.40;;;20.40;;
7587;SDS011;3835;48.850;8.938;2022-09-01T07:18:51;21.97;;;19.97;;
7587;SDS011;3835;48.850;8.938;2022-09-01T07:21:21;23.57;;;21.77;;
7587;SDS011;3835;48.850;8.938;2022-09-01T07:23:48;21.93;;;20.13;;
7587;SDS011;3835;48.850;8.938;2022-09-01T07:26:17;22.90;;;20.80;;
7587;SDS011;3835;48.850;8.938;2022-09-01T07:28:45;22.57;;;20.80;;
7587;SDS011;3835;48.850;8.938;2022-09-01T07:31:19;21.80;;;19.80;;
7587;SDS011;3835;48.850;8.938;2022-09-01T07:33:49;21.87;;;19.87;;
7587;SDS011;3835;48.850;8.938;2022-09-01T07:36:17;22.17;;;20.17;;
7587;SDS011;3835;48.850;8.938;2022-09-01T07:38:45;22.07;;;19.90;;
7587;SDS011;3835;48.850;8.938;2022-09-01T07:41:15;23.80;;;21.87;;
7587;SDS011;3835;48.850;8.938;2022-09-01T07:43:42;21.80;;;20.10;;
7587;SDS011;3835;48.850;8.938;2022-09-01T07:46:10;24.63;;;22.20;;
7587;SDS011;3835;48.850;8.938;2022-09-01T07:48:38;22.23;;;20.53;;
7587;SDS011;3835;48.850;8.938;2022-09-01T07:51:06;22.90;;;20.97;;
7587;SDS011;3835;48.850;8.938;2022-09-01T07:53:33;22.80;;;21.07;;
7587;SDS011;3835;48.850;8.938;2022-09-01T07:56:04;22.57;;;20.77;;
7587;SDS011;3835;48.850;8.938;2022-09-01T07:58:33;21.97;;;20.37;;
7587;SDS011;3835;48.850;8.938;2022-09-01T08:01:00;28.07;;;25.73;;
7587;SDS011;3835;48.850;8.938;2022-09-01T08:03:31;24.53;;;22.67;;
7587;SDS011;3835;48.850;8.938;2022-09-01T08:06:02;25.17;;;23.37;;
7587;SDS011;3835;48.850;8.938;2022-09-01T08:08:30;28.83;;;26.93;;
7587;SDS011;3835;48.850;8.938;2022-09-01T08:10:57;21.23;;;19.53;;
7587;SDS011;3835;48.850;8.938;2022-09-01T08:13:25;35.07;;;32.87;;
7587;SDS011;3835;48.850;8.938;2022-09-01T08:15:51;20.57;;;19.00;;
7587;SDS011;3835;48.850;8.938;2022-09-01T08:18:19;25.53;;;23.50;;
7587;SDS011;3835;48.850;8.938;2022-09-01T08:20:45;29.07;;;26.67;;
7587;SDS011;3835;48.850;8.938;2022-09-01T08:23:14;22.37;;;20.70;;
7587;SDS011;3835;48.850;8.938;2022-09-01T08:25:45;21.30;;;19.57;;
7587;SDS011;3835;48.850;8.938;2022-09-01T08:28:13;29.90;;;27.93;;
7587;SDS011;3835;48.850;8.938;2022-09-01T08:30:41;24.13;;;22.43;;
7587;SDS011;3835;48.850;8.938;2022-09-01T08:33:09;24.10;;;22.30;;
7587;SDS011;3835;48.850;8.938;2022-09-01T08:35:38;29.33;;;27.53;;
7587;SDS011;3835;48.850;8.938;2022-09-01T08:38:05;25.17;;;23.50;;
7587;SDS011;3835;48.850;8.938;2022-09-01T08:40:33;20.77;;;19.17;;
7587;SDS011;3835;48.850;8.938;2022-09-01T08:43:03;33.23;;;31.20;;
7587;SDS011;3835;48.850;8.938;2022-09-01T08:45:41;21.50;;;20.00;;
7587;SDS011;3835;48.850;8.938;2022-09-01T08:48:15;19.33;;;17.93;;
7587;SDS011;3835;48.850;8.938;2022-09-01T08:50:44;18.30;;;17.10;;
7587;SDS011;3835;48.850;8.938;2022-09-01T08:53:17;22.07;;;20.43;;
7587;SDS011;3835;48.850;8.938;2022-09-01T08:55:53;28.60;;;26.87;;
7587;SDS011;3835;48.850;8.938;2022-09-01T08:58:22;25.07;;;23.47;;
7587;SDS011;3835;48.850;8.938;2022-09-01T09:00:51;24.50;;;22.87;;
7587;SDS011;3835;48.850;8.938;2022-09-01T09:03:22;23.27;;;21.77;;
7587;SDS011;3835;48.850;8.938;2022-09-01T09:05:58;17.63;;;16.33;;
7587;SDS011;3835;48.850;8.938;2022-09-01T09:11:33;19.50;;;18.20;;
7587;SDS011;3835;48.850;8.938;2022-09-01T09:14:39;20.20;;;18.80;;
7587;SDS011;3835;48.850;8.938;2022-09-01T09:17:13;17.60;;;16.40;;
7587;SDS011;3835;48.850;8.938;2022-09-01T09:19:45;19.77;;;18.43;;
7587;SDS011;3835;48.850;8.938;2022-09-01T09:22:12;17.70;;;16.30;;
7587;SDS011;3835;48.850;8.938;2022-09-01T09:24:42;19.67;;;18.20;;
7587;SDS011;3835;48.850;8.938;2022-09-01T09:27:19;16.43;;;15.23;;
7587;SDS011;3835;48.850;8.938;2022-09-01T09:29:48;18.07;;;16.73;;
7587;SDS011;3835;48.850;8.938;2022-09-01T09:32:18;16.70;;;15.70;;
7587;SDS011;3835;48.850;8.938;2022-09-01T09:34:46;15.00;;;14.00;;
7587;SDS011;3835;48.850;8.938;2022-09-01T09:37:21;17.53;;;16.33;;
7587;SDS011;3835;48.850;8.938;2022-09-01T09:40:06;17.83;;;16.57;;
7587;SDS011;3835;48.850;8.938;2022-09-01T09:42:38;16.80;;;15.77;;
7587;SDS011;3835;48.850;8.938;2022-09-01T09:45:12;18.23;;;17.13;;
7587;SDS011;3835;48.850;8.938;2022-09-01T09:47:47;16.67;;;15.67;;
7587;SDS011;3835;48.850;8.938;2022-09-01T09:50:20;16.97;;;15.87;;
7587;SDS011;3835;48.850;8.938;2022-09-01T09:52:49;16.80;;;15.57;;
7587;SDS011;3835;48.850;8.938;2022-09-01T09:55:22;20.50;;;18.97;;
7587;SDS011;3835;48.850;8.938;2022-09-01T09:57:53;18.17;;;16.93;;
7587;SDS011;3835;48.850;8.938;2022-09-01T10:00:23;19.00;;;17.90;;
7587;SDS011;3835;48.850;8.938;2022-09-01T10:02:57;17.80;;;16.70;;
7587;SDS011;3835;48.850;8.938;2022-09-01T10:05:28;24.23;;;22.93;;
7587;SDS011;3835;48.850;8.938;2022-09-01T10:08:01;15.23;;;14.10;;
7587;SDS011;3835;48.850;8.938;2022-09-01T10:10:30;15.73;;;14.63;;
7587;SDS011;3835;48.850;8.938;2022-09-01T10:13:07;16.77;;;15.77;;
7587;SDS011;3835;48.850;8.938;2022-09-01T10:15:36;21.97;;;20.70;;
7587;SDS011;3835;48.850;8.938;2022-09-01T10:18:05;18.07;;;17.07;;
7587;SDS011;3835;48.850;8.938;2022-09-01T10:20:38;18.27;;;17.10;;
7587;SDS011;3835;48.850;8.938;2022-09-01T10:23:09;19.00;;;17.90;;
7587;SDS011;3835;48.850;8.938;2022-09-01T10:25:36;14.40;;;13.47;;
7587;SDS011;3835;48.850;8.938;2022-09-01T10:28:08;14.50;;;13.67;;
7587;SDS011;3835;48.850;8.938;2022-09-01T10:30:38;15.47;;;14.57;;
7587;SDS011;3835;48.850;8.938;2022-09-01T10:33:08;14.30;;;13.40;;
7587;SDS011;3835;48.850;8.938;2022-09-01T10:35:37;13.53;;;12.73;;
7587;SDS011;3835;48.850;8.938;2022-09-01T10:38:09;12.83;;;11.93;;
7587;SDS011;3835;48.850;8.938;2022-09-01T10:40:41;16.13;;;15.13;;
7587;SDS011;3835;48.850;8.938;2022-09-01T10:49:12;15.33;;;14.33;;
7587;SDS011;3835;48.850;8.938;2022-09-01T10:51:45;13.97;;;13.07;;
7587;SDS011;3835;48.850;8.938;2022-09-01T10:57:29;14.83;;;14.03;;
7587;SDS011;3835;48.850;8.938;2022-09-01T11:09:18;14.43;;;13.57;;
7587;SDS011;3835;48.850;8.938;2022-09-01T11:11:53;13.50;;;12.30;;
7587;SDS011;3835;48.850;8.938;2022-09-01T11:14:45;14.43;;;13.60;;
7587;SDS011;3835;48.850;8.938;2022-09-01T11:17:17;15.53;;;14.43;;
7587;SDS011;3835;48.850;8.938;2022-09-01T11:19:47;16.60;;;15.60;;
7587;SDS011;3835;48.850;8.938;2022-09-01T11:22:24;15.80;;;14.90;;
7587;SDS011;3835;48.850;8.938;2022-09-01T11:28:04;13.47;;;12.67;;
7587;SDS011;3835;48.850;8.938;2022-09-01T11:30:59;14.63;;;13.80;;
7587;SDS011;3835;48.850;8.938;2022-09-01T11:33:44;14.13;;;13.23;;
7587;SDS011;3835;48.850;8.938;2022-09-01T11:36:21;14.57;;;13.67;;
7587;SDS011;3835;48.850;8.938;2022-09-01T11:38:54;11.77;;;11.17;;
7587;SDS011;3835;48.850;8.938;2022-09-01T11:41:28;14.27;;;13.43;;
7587;SDS011;3835;48.850;8.938;2022-09-01T11:43:59;12.87;;;12.17;;
7587;SDS011;3835;48.850;8.938;2022-09-01T11:46:29;13.70;;;13.00;;
7587;SDS011;3835;48.850;8.938;2022-09-01T11:49:05;13.53;;;12.73;;
7587;SDS011;3835;48.850;8.938;2022-09-01T11:51:40;16.03;;;15.10;;
7587;SDS011;3835;48.850;8.938;2022-09-01T11:54:09;13.37;;;12.47;;
7587;SDS011;3835;48.850;8.938;2022-09-01T11:56:37;12.50;;;11.80;;
7587;SDS011;3835;48.850;8.938;2022-09-01T11:59:04;14.10;;;13.33;;
7587;SDS011;3835;48.850;8.938;2022-09-01T12:01:31;13.33;;;12.60;;
7587;SDS011;3835;48.850;8.938;2022-09-01T12:06:52;13.17;;;12.27;;
7587;SDS011;3835;48.850;8.938;2022-09-01T12:09:22;13.90;;;13.17;;
7587;SDS011;3835;48.850;8.938;2022-09-01T12:11:58;12.53;;;11.93;;
7587;SDS011;3835;48.850;8.938;2022-09-01T12:14:25;14.60;;;13.80;;
7587;SDS011;3835;48.850;8.938;2022-09-01T12:16:55;14.77;;;14.07;;
7587;SDS011;3835;48.850;8.938;2022-09-01T12:19:25;16.10;;;15.17;;
7587;SDS011;3835;48.850;8.938;2022-09-01T12:21:57;13.53;;;12.73;;
7587;SDS011;3835;48.850;8.938;2022-09-01T12:24:25;13.70;;;12.90;;
7587;SDS011;3835;48.850;8.938;2022-09-01T12:26:54;13.60;;;12.97;;
7587;SDS011;3835;48.850;8.938;2022-09-01T12:29:23;12.60;;;12.00;;
7587;SDS011;3835;48.850;8.938;2022-09-01T12:31:50;12.03;;;11.43;;
7587;SDS011;3835;48.850;8.938;2022-09-01T12:34:26;12.83;;;12.23;;
7587;SDS011;3835;48.850;8.938;2022-09-01T12:37:04;12.47;;;11.87;;
7587;SDS011;3835;48.850;8.938;2022-09-01T12:39:34;11.47;;;10.87;;
7587;SDS011;3835;48.850;8.938;2022-09-01T12:42:04;12.10;;;11.50;;
7587;SDS011;3835;48.850;8.938;2022-09-01T12:44:41;12.67;;;12.07;;
7587;SDS011;3835;48.850;8.938;2022-09-01T12:47:12;11.87;;;11.27;;
7587;SDS011;3835;48.850;8.938;2022-09-01T12:50:00;12.63;;;11.83;;
7587;SDS011;3835;48.850;8.938;2022-09-01T12:52:29;11.60;;;11.10;;
7587;SDS011;3835;48.850;8.938;2022-09-01T12:55:07;12.13;;;11.33;;
7587;SDS011;3835;48.850;8.938;2022-09-01T12:57:40;12.17;;;11.40;;
7587;SDS011;3835;48.850;8.938;2022-09-01T13:00:16;13.03;;;12.43;;
7587;SDS011;3835;48.850;8.938;2022-09-01T13:02:45;13.27;;;12.53;;
7587;SDS011;3835;48.850;8.938;2022-09-01T13:05:20;11.70;;;11.07;;
7587;SDS011;3835;48.850;8.938;2022-09-01T13:07:53;13.23;;;12.33;;
7587;SDS011;3835;48.850;8.938;2022-09-01T13:10:21;11.80;;;11.20;;
7587;SDS011;3835;48.850;8.938;2022-09-01T13:12:49;11.93;;;11.33;;
7587;SDS011;3835;48.850;8.938;2022-09-01T13:15:16;13.33;;;12.53;;
7587;SDS011;3835;48.850;8.938;2022-09-01T13:17:44;12.33;;;11.73;;
7587;SDS011;3835;48.850;8.938;2022-09-01T13:20:11;14.03;;;13.17;;
7587;SDS011;3835;48.850;8.938;2022-09-01T13:22:39;11.80;;;11.20;;
7587;SDS011;3835;48.850;8.938;2022-09-01T13:25:10;10.47;;;9.97;;
7587;SDS011;3835;48.850;8.938;2022-09-01T13:27:37;11.80;;;11.20;;
7587;SDS011;3835;48.850;8.938;2022-09-01T13:30:08;13.57;;;12.93;;
7587;SDS011;3835;48.850;8.938;2022-09-01T13:32:36;11.63;;;11.13;;
7587;SDS011;3835;48.850;8.938;2022-09-01T13:35:03;13.90;;;13.20;;
7587;SDS011;3835;48.850;8.938;2022-09-01T13:37:31;12.20;;;11.60;;
7587;SDS011;3835;48.850;8.938;2022-09-01T13:39:58;11.70;;;11.10;;
7587;SDS011;3835;48.850;8.938;2022-09-01T13:42:26;11.67;;;11.07;;
7587;SDS011;3835;48.850;8.938;2022-09-01T13:44:53;11.80;;;11.20;;
7587;SDS011;3835;48.850;8.938;2022-09-01T13:47:20;11.73;;;11.13;;
7587;SDS011;3835;48.850;8.938;2022-09-01T13:49:48;10.67;;;10.17;;
7587;SDS011;3835;48.850;8.938;2022-09-01T13:52:15;11.83;;;11.23;;
7587;SDS011;3835;48.850;8.938;2022-09-01T13:54:43;10.83;;;10.33;;
7587;SDS011;3835;48.850;8.938;2022-09-01T13:57:11;11.17;;;10.67;;
7587;SDS011;3835;48.850;8.938;2022-09-01T13:59:40;11.83;;;11.33;;
7587;SDS011;3835;48.850;8.938;2022-09-01T14:02:07;12.63;;;11.80;;
7587;SDS011;3835;48.850;8.938;2022-09-01T14:04:34;11.87;;;11.27;;
7587;SDS011;3835;48.850;8.938;2022-09-01T14:07:01;11.53;;;11.00;;
7587;SDS011;3835;48.850;8.938;2022-09-01T14:09:28;12.13;;;11.53;;
7587;SDS011;3835;48.850;8.938;2022-09-01T14:11:55;10.77;;;10.27;;
7587;SDS011;3835;48.850;8.938;2022-09-01T14:14:23;11.23;;;10.73;;
7587;SDS011;3835;48.850;8.938;2022-09-01T14:16:52;12.57;;;11.97;;
7587;SDS011;3835;48.850;8.938;2022-09-01T14:19:19;12.37;;;11.67;;
7587;SDS011;3835;48.850;8.938;2022-09-01T14:21:47;12.63;;;12.03;;
7587;SDS011;3835;48.850;8.938;2022-09-01T14:24:14;12.57;;;11.97;;
7587;SDS011;3835;48.850;8.938;2022-09-01T14:26:45;11.77;;;11.13;;
7587;SDS011;3835;48.850;8.938;2022-09-01T14:29:12;12.30;;;11.70;;
7587;SDS011;3835;48.850;8.938;2022-09-01T14:31:39;12.47;;;11.77;;
7587;SDS011;3835;48.850;8.938;2022-09-01T14:34:10;12.03;;;11.43;;
7587;SDS011;3835;48.850;8.938;2022-09-01T14:36:37;12.60;;;11.90;;
7587;SDS011;3835;48.850;8.938;2022-09-01T14:39:04;12.33;;;11.50;;
7587;SDS011;3835;48.850;8.938;2022-09-01T14:41:31;13.37;;;12.67;;
7587;SDS011;3835;48.850;8.938;2022-09-01T14:43:58;12.33;;;11.67;;
7587;SDS011;3835;48.850;8.938;2022-09-01T14:46:26;13.63;;;12.93;;
7587;SDS011;3835;48.850;8.938;2022-09-01T14:48:54;12.77;;;11.90;;
7587;SDS011;3835;48.850;8.938;2022-09-01T14:51:24;12.97;;;12.37;;
7587;SDS011;3835;48.850;8.938;2022-09-01T14:53:52;11.47;;;10.87;;
7587;SDS011;3835;48.850;8.938;2022-09-01T14:56:20;13.10;;;12.07;;
7587;SDS011;3835;48.850;8.938;2022-09-01T14:58:47;14.13;;;13.43;;
7587;SDS011;3835;48.850;8.938;2022-09-01T15:01:16;13.13;;;12.43;;
7587;SDS011;3835;48.850;8.938;2022-09-01T15:03:45;11.43;;;10.83;;
7587;SDS011;3835;48.850;8.938;2022-09-01T15:06:13;12.07;;;11.47;;
7587;SDS011;3835;48.850;8.938;2022-09-01T15:08:42;14.13;;;13.40;;
7587;SDS011;3835;48.850;8.938;2022-09-01T15:11:09;14.10;;;13.37;;
7587;SDS011;3835;48.850;8.938;2022-09-01T15:13:37;14.20;;;13.20;;
7587;SDS011;3835;48.850;8.938;2022-09-01T15:16:11;12.40;;;11.80;;
7587;SDS011;3835;48.850;8.938;2022-09-01T15:18:39;11.67;;;11.07;;
7587;SDS011;3835;48.850;8.938;2022-09-01T15:21:06;13.43;;;12.57;;
7587;SDS011;3835;48.850;8.938;2022-09-01T15:23:33;11.17;;;10.63;;
7587;SDS011;3835;48.850;8.938;2022-09-01T15:26:01;11.90;;;11.30;;
7587;SDS011;3835;48.850;8.938;2022-09-01T15:28:29;11.60;;;10.90;;
7587;SDS011;3835;48.850;8.938;2022-09-01T15:30:56;12.00;;;11.40;;